createdAt,value
2023-05-15T00:00:34.787Z,13.20
2023-05-15T00:03:02.523Z,13.73
2023-05-15T00:05:29.356Z,12.80
2023-05-15T00:07:56.001Z,13.43
2023-05-15T00:10:22.663Z,12.77
2023-05-15T00:12:49.426Z,11.75
2023-05-15T00:15:16.040Z,13.85
2023-05-15T00:17:42.635Z,13.05
2023-05-15T00:20:10.085Z,13.32
2023-05-15T00:22:36.874Z,13.30
2023-05-15T00:25:03.766Z,13.25
2023-05-15T00:27:30.520Z,13.60
2023-05-15T00:29:57.149Z,14.65
2023-05-15T00:32:24.731Z,13.57
2023-05-15T00:34:51.269Z,13.00
2023-05-15T00:37:19.222Z,13.40
2023-05-15T00:39:46.106Z,13.23
2023-05-15T00:42:15.471Z,14.23
2023-05-15T00:44:44.370Z,12.95
2023-05-15T00:47:11.900Z,14.48
2023-05-15T00:49:39.053Z,13.98
2023-05-15T00:52:08.615Z,13.65
2023-05-15T00:54:35.542Z,14.43
2023-05-15T00:57:05.356Z,14.20
2023-05-15T00:59:33.092Z,14.35
2023-05-15T01:01:59.999Z,14.05
2023-05-15T01:04:26.754Z,13.40
2023-05-15T01:06:54.136Z,14.95
2023-05-15T01:09:23.696Z,13.68
2023-05-15T01:11:53.498Z,13.50
2023-05-15T01:14:20.057Z,12.75
2023-05-15T01:16:46.744Z,14.02
2023-05-15T01:19:13.498Z,14.18
2023-05-15T01:22:18.174Z,13.00
2023-05-15T01:25:06.829Z,13.20
2023-05-15T01:27:48.588Z,13.95
2023-05-15T01:30:24.521Z,12.65
2023-05-15T01:33:02.826Z,14.45
2023-05-15T01:35:41.651Z,13.82
2023-05-15T01:38:27.775Z,13.38
2023-05-15T01:41:03.365Z,14.13
2023-05-15T01:43:33.118Z,14.85
2023-05-15T01:46:00.963Z,14.55
2023-05-15T01:48:31.464Z,14.65
2023-05-15T01:51:02.794Z,15.32
2023-05-15T01:53:32.327Z,15.32
2023-05-15T01:55:59.973Z,14.88
2023-05-15T01:58:27.655Z,13.70
2023-05-15T02:00:55.463Z,13.57
2023-05-15T02:03:22.338Z,14.02
2023-05-15T02:05:50.732Z,14.75
2023-05-15T02:08:17.677Z,12.50
2023-05-15T02:10:44.579Z,14.30
2023-05-15T02:13:12.677Z,14.02
2023-05-15T02:15:39.558Z,15.90
2023-05-15T02:18:06.589Z,15.75
2023-05-15T02:20:33.283Z,17.23
2023-05-15T02:22:59.961Z,15.00
2023-05-15T02:25:43.695Z,14.38
2023-05-15T02:28:20.805Z,14.00
2023-05-15T02:31:05.820Z,14.45
2023-05-15T02:33:45.917Z,15.43
2023-05-15T02:36:19.142Z,13.98
2023-05-15T02:38:52.206Z,14.82
2023-05-15T02:41:19.840Z,15.02
2023-05-15T02:43:49.071Z,13.45
2023-05-15T02:46:16.378Z,15.05
2023-05-15T02:48:44.173Z,14.75
2023-05-15T02:51:11.126Z,13.95
2023-05-15T02:53:41.880Z,14.95
2023-05-15T02:56:16.562Z,15.00
2023-05-15T02:58:43.380Z,14.75
2023-05-15T03:01:28.902Z,15.90
2023-05-15T03:03:55.630Z,14.82
2023-05-15T03:06:22.492Z,16.02
2023-05-15T03:08:49.127Z,15.52
2023-05-15T03:11:16.356Z,14.65
2023-05-15T03:13:42.939Z,14.95
2023-05-15T03:16:09.805Z,15.35
2023-05-15T03:18:36.525Z,15.20
2023-05-15T03:21:03.288Z,15.68
2023-05-15T03:23:31.444Z,14.90
2023-05-15T03:25:59.222Z,16.20
2023-05-15T03:28:26.014Z,16.30
2023-05-15T03:30:52.668Z,15.05
2023-05-15T03:33:19.594Z,15.20
2023-05-15T03:35:46.441Z,15.55
2023-05-15T03:38:13.153Z,16.13
2023-05-15T03:40:39.874Z,14.95
2023-05-15T03:43:06.817Z,14.73
2023-05-15T03:45:37.160Z,12.50
2023-05-15T03:48:03.981Z,14.20
2023-05-15T03:50:30.885Z,13.70
2023-05-15T03:52:57.683Z,13.57
2023-05-15T03:55:24.594Z,13.57
2023-05-15T03:57:51.525Z,13.50
2023-05-15T04:00:19.147Z,13.70
2023-05-15T04:02:46.211Z,14.25
2023-05-15T04:05:13.026Z,12.18
2023-05-15T04:07:39.803Z,13.20
2023-05-15T04:10:07.075Z,11.32
2023-05-15T04:12:35.495Z,12.27
2023-05-15T04:15:16.980Z,12.60
2023-05-15T04:17:45.101Z,12.30
2023-05-15T04:20:14.353Z,12.07
2023-05-15T04:22:42.574Z,12.90
2023-05-15T04:25:11.040Z,12.02
2023-05-15T04:27:38.865Z,11.30
2023-05-15T04:30:06.495Z,11.70
2023-05-15T04:32:34.044Z,12.15
2023-05-15T04:35:01.486Z,11.70
2023-05-15T04:37:29.206Z,11.25
2023-05-15T04:39:55.849Z,12.98
2023-05-15T04:42:23.579Z,12.98
2023-05-15T04:44:50.305Z,13.63
2023-05-15T04:47:16.987Z,11.25
2023-05-15T04:49:43.681Z,11.25
2023-05-15T04:52:11.413Z,11.90
2023-05-15T04:54:38.103Z,12.85
2023-05-15T04:57:05.098Z,11.57
2023-05-15T04:59:31.789Z,11.73
2023-05-15T05:01:58.586Z,11.98
2023-05-15T05:04:25.368Z,10.75
2023-05-15T05:06:52.543Z,10.77
2023-05-15T05:09:20.093Z,11.32
2023-05-15T05:11:47.743Z,11.30
2023-05-15T05:14:15.294Z,11.13
2023-05-15T05:16:44.909Z,10.32
2023-05-15T05:19:11.791Z,11.60
2023-05-15T05:21:38.821Z,10.02
2023-05-15T05:24:05.950Z,11.70
2023-05-15T05:26:32.748Z,10.77
2023-05-15T05:28:59.452Z,11.10
2023-05-15T05:31:26.223Z,10.88
2023-05-15T05:33:52.981Z,10.73
2023-05-15T05:36:19.725Z,10.63
2023-05-15T05:38:46.541Z,11.07
2023-05-15T05:41:13.185Z,11.60
2023-05-15T05:43:39.820Z,12.35
2023-05-15T05:46:07.921Z,12.02
2023-05-15T05:48:34.593Z,15.98
2023-05-15T05:51:03.547Z,15.43
2023-05-15T05:53:30.279Z,11.82
2023-05-15T05:55:56.984Z,11.10
2023-05-15T05:58:26.441Z,12.38
2023-05-15T06:00:53.719Z,11.30
2023-05-15T06:03:24.600Z,11.10
2023-05-15T06:05:51.369Z,10.70
2023-05-15T06:08:18.142Z,11.43
2023-05-15T06:10:44.794Z,10.88
2023-05-15T06:13:11.931Z,11.52
2023-05-15T06:15:39.769Z,12.35
2023-05-15T06:18:06.781Z,12.95
2023-05-15T06:20:34.091Z,12.77
2023-05-15T06:23:00.861Z,12.85
2023-05-15T06:25:27.482Z,11.15
2023-05-15T06:27:54.151Z,11.55
2023-05-15T06:30:20.795Z,11.65
2023-05-15T06:32:47.537Z,11.43
2023-05-15T06:35:14.381Z,10.52
2023-05-15T06:37:41.113Z,12.80
2023-05-15T06:40:08.577Z,11.27
2023-05-15T06:42:35.560Z,12.32
2023-05-15T06:45:02.266Z,12.82
2023-05-15T06:47:29.086Z,12.13
2023-05-15T06:49:55.732Z,12.13
2023-05-15T06:52:22.392Z,11.48
2023-05-15T06:54:48.993Z,12.75
2023-05-15T06:57:16.062Z,14.10
2023-05-15T06:59:43.890Z,13.57
2023-05-15T07:02:10.879Z,12.48
2023-05-15T07:04:37.768Z,12.00
2023-05-15T07:07:04.669Z,13.38
2023-05-15T07:09:31.416Z,13.48
2023-05-15T07:11:58.102Z,13.80
2023-05-15T07:14:24.892Z,13.55
2023-05-15T07:16:51.692Z,13.52
2023-05-15T07:19:21.098Z,13.70
2023-05-15T07:21:48.063Z,14.80
2023-05-15T07:24:14.702Z,15.70
2023-05-15T07:26:50.647Z,13.05
2023-05-15T07:29:24.636Z,13.65
2023-05-15T07:31:52.703Z,13.73
2023-05-15T07:34:19.489Z,14.07
2023-05-15T07:36:46.087Z,13.82
2023-05-15T07:39:13.348Z,13.43
2023-05-15T07:41:40.024Z,14.15
2023-05-15T07:44:07.105Z,13.93
2023-05-15T07:46:34.774Z,13.52
2023-05-15T07:49:01.854Z,15.05
2023-05-15T07:51:47.303Z,13.65
2023-05-15T07:54:13.943Z,13.57
2023-05-15T07:56:40.664Z,13.00
2023-05-15T07:59:07.838Z,12.80
2023-05-15T08:01:34.797Z,12.30
2023-05-15T08:04:01.430Z,10.95
2023-05-15T08:06:28.141Z,11.52
2023-05-15T08:08:54.877Z,11.48
2023-05-15T08:11:22.213Z,11.32
2023-05-15T08:13:49.081Z,11.07
2023-05-15T08:16:16.224Z,11.07
2023-05-15T08:18:42.888Z,11.15
2023-05-15T08:21:09.520Z,10.02
2023-05-15T08:23:36.357Z,11.00
2023-05-15T08:26:02.957Z,9.73
2023-05-15T08:28:29.602Z,9.90
2023-05-15T08:30:56.292Z,8.40
2023-05-15T08:33:22.978Z,7.97
2023-05-15T08:35:49.710Z,8.43
2023-05-15T08:38:16.400Z,8.02
2023-05-15T08:40:47.358Z,8.13
2023-05-15T08:43:17.668Z,8.65
2023-05-15T08:45:44.731Z,7.95
2023-05-15T08:48:14.860Z,8.48
2023-05-15T08:50:43.651Z,8.10
2023-05-15T08:53:14.186Z,8.85
2023-05-15T08:55:42.269Z,8.65
2023-05-15T08:58:09.717Z,8.82
2023-05-15T09:00:38.785Z,8.07
2023-05-15T09:03:05.781Z,9.30
2023-05-15T09:05:32.857Z,8.32
2023-05-15T09:08:04.087Z,8.38
2023-05-15T09:10:31.716Z,8.77
2023-05-15T09:12:59.347Z,8.73
2023-05-15T09:15:27.264Z,8.05
2023-05-15T09:17:56.189Z,8.25
2023-05-15T09:20:37.154Z,8.77
2023-05-15T09:23:06.212Z,8.23
2023-05-15T09:25:42.749Z,7.85
2023-05-15T09:28:11.537Z,7.85
2023-05-15T09:30:39.457Z,7.35
2023-05-15T09:33:06.267Z,6.85
2023-05-15T09:35:32.973Z,7.60
2023-05-15T09:38:01.466Z,7.85
2023-05-15T09:40:32.603Z,7.47
2023-05-15T09:42:59.549Z,7.38
2023-05-15T09:45:29.924Z,7.53
2023-05-15T09:47:59.882Z,6.95
2023-05-15T09:50:37.146Z,6.75
2023-05-15T09:53:04.963Z,7.78
2023-05-15T09:55:34.917Z,7.07
2023-05-15T09:58:21.369Z,6.47
2023-05-15T10:00:49.699Z,7.00
2023-05-15T10:03:18.895Z,6.97
2023-05-15T10:05:45.816Z,6.63
2023-05-15T10:08:13.021Z,6.30
2023-05-15T10:10:40.051Z,6.53
2023-05-15T10:13:08.277Z,6.82
2023-05-15T10:15:35.561Z,6.38
2023-05-15T10:18:04.399Z,6.15
2023-05-15T10:20:49.863Z,6.10
2023-05-15T10:23:18.408Z,5.80
2023-05-15T10:25:56.138Z,6.55
2023-05-15T10:28:23.057Z,5.70
2023-05-15T10:30:49.922Z,6.68
2023-05-15T10:33:19.852Z,6.35
2023-05-15T10:35:48.514Z,6.38
2023-05-15T10:38:15.967Z,7.05
2023-05-15T10:40:43.745Z,6.15
2023-05-15T10:43:13.088Z,6.03
2023-05-15T10:45:40.102Z,6.22
2023-05-15T10:48:09.327Z,6.25
2023-05-15T10:50:37.790Z,6.00
2023-05-15T10:53:04.537Z,5.45
2023-05-15T10:55:31.553Z,5.32
2023-05-15T10:58:17.940Z,5.25
2023-05-15T11:00:45.670Z,5.05
2023-05-15T11:03:16.725Z,5.40
2023-05-15T11:06:09.901Z,5.63
2023-05-15T11:08:41.651Z,4.78
2023-05-15T11:11:10.672Z,4.55
2023-05-15T11:14:05.181Z,4.10
2023-05-15T11:16:53.806Z,4.00
2023-05-15T11:19:35.188Z,4.72
2023-05-15T11:22:16.899Z,4.70
2023-05-15T11:25:09.158Z,4.72
2023-05-15T11:27:40.250Z,4.45
2023-05-15T11:30:10.019Z,4.63
2023-05-15T11:32:52.803Z,4.95
2023-05-15T11:35:44.080Z,5.47
2023-05-15T11:38:10.974Z,5.80
2023-05-15T11:40:52.892Z,5.80
2023-05-15T11:43:32.829Z,4.93
2023-05-15T11:46:10.948Z,5.30
2023-05-15T11:48:40.107Z,5.47
2023-05-15T11:51:16.545Z,5.10
2023-05-15T11:53:43.580Z,4.72
2023-05-15T11:56:23.787Z,5.40
2023-05-15T11:58:51.978Z,4.90
2023-05-15T12:01:18.664Z,4.18
2023-05-15T12:03:48.319Z,5.78
2023-05-15T12:06:15.568Z,5.53
2023-05-15T12:08:42.354Z,6.10
2023-05-15T12:11:09.664Z,6.20
2023-05-15T12:13:36.388Z,6.55
2023-05-15T12:16:04.113Z,6.57
2023-05-15T12:18:32.369Z,6.88
2023-05-15T12:20:59.805Z,6.38
2023-05-15T12:23:28.639Z,6.25
2023-05-15T12:26:00.360Z,6.55
2023-05-15T12:28:27.468Z,7.10
2023-05-15T12:30:54.765Z,7.13
2023-05-15T12:33:21.898Z,6.43
2023-05-15T12:35:58.024Z,7.00
2023-05-15T12:38:26.958Z,5.78
2023-05-15T12:41:12.740Z,5.93
2023-05-15T12:43:39.640Z,6.25
2023-05-15T12:46:06.448Z,5.72
2023-05-15T12:48:33.564Z,5.55
2023-05-15T12:51:08.135Z,4.97
2023-05-15T12:53:36.407Z,5.65
2023-05-15T12:56:04.924Z,4.80
2023-05-15T12:58:31.632Z,4.90
2023-05-15T13:00:58.969Z,4.35
2023-05-15T13:03:26.519Z,3.88
2023-05-15T13:05:53.355Z,3.78
2023-05-15T13:08:20.521Z,4.35
2023-05-15T13:10:47.964Z,4.32
2023-05-15T13:13:15.588Z,3.55
2023-05-15T13:15:48.484Z,3.60
2023-05-15T13:18:18.606Z,3.10
2023-05-15T13:20:50.090Z,2.47
2023-05-15T13:23:19.491Z,2.47
2023-05-15T13:25:46.566Z,2.33
2023-05-15T13:28:13.932Z,2.42
2023-05-15T13:30:42.238Z,3.67
2023-05-15T13:33:10.616Z,2.70
2023-05-15T13:35:38.404Z,2.72
2023-05-15T13:38:25.212Z,2.53
2023-05-15T13:43:18.593Z,2.33
2023-05-15T13:45:45.259Z,2.90
2023-05-15T13:48:11.906Z,2.42
2023-05-15T13:50:57.554Z,2.47
2023-05-15T13:53:24.127Z,2.25
2023-05-15T13:55:51.894Z,2.70
2023-05-15T13:58:21.222Z,2.97
2023-05-15T14:00:48.874Z,2.80
2023-05-15T14:03:15.904Z,2.30
2023-05-15T14:05:42.618Z,2.05
2023-05-15T14:08:09.406Z,2.40
2023-05-15T14:10:37.505Z,2.13
2023-05-15T14:13:04.569Z,3.10
2023-05-15T14:15:31.155Z,2.90
2023-05-15T14:17:57.948Z,2.92
2023-05-15T14:20:25.695Z,3.15
2023-05-15T14:22:52.464Z,2.95
2023-05-15T14:25:19.171Z,2.72
2023-05-15T14:27:46.693Z,3.00
2023-05-15T14:30:14.529Z,3.40
2023-05-15T14:32:41.563Z,3.03
2023-05-15T14:35:08.319Z,3.33
2023-05-15T14:37:36.685Z,4.00
2023-05-15T14:40:05.108Z,4.00
2023-05-15T14:42:32.147Z,3.55
2023-05-15T14:44:58.895Z,3.20
2023-05-15T14:47:27.942Z,3.38
2023-05-15T14:49:54.580Z,3.53
2023-05-15T14:52:21.293Z,3.88
2023-05-15T14:54:56.959Z,4.45
2023-05-15T14:57:34.572Z,4.43
2023-05-15T15:00:02.455Z,5.68
2023-05-15T15:02:29.145Z,5.85
2023-05-15T15:04:57.974Z,5.90
2023-05-15T15:07:29.691Z,5.85
2023-05-15T15:09:56.319Z,6.72
2023-05-15T15:12:24.132Z,6.13
2023-05-15T15:14:50.760Z,6.13
2023-05-15T15:17:18.477Z,6.63
2023-05-15T15:19:50.857Z,6.95
2023-05-15T15:22:17.600Z,6.90
2023-05-15T15:24:44.299Z,6.82
2023-05-15T15:27:10.913Z,6.57
2023-05-15T15:29:37.567Z,7.00
2023-05-15T15:32:04.723Z,6.53
2023-05-15T15:34:31.332Z,6.85
2023-05-15T15:36:57.953Z,7.05
2023-05-15T15:39:24.733Z,6.53
2023-05-15T15:41:51.402Z,7.32
2023-05-15T15:44:18.292Z,7.10
2023-05-15T15:46:44.919Z,7.43
2023-05-15T15:49:11.694Z,6.93
2023-05-15T15:51:38.574Z,7.30
2023-05-15T15:54:05.531Z,7.70
2023-05-15T15:56:33.525Z,6.20
2023-05-15T15:59:00.162Z,6.47
2023-05-15T16:01:27.581Z,5.78
2023-05-15T16:03:54.349Z,5.93
2023-05-15T16:06:21.156Z,6.88
2023-05-15T16:08:47.756Z,7.80
2023-05-15T16:11:15.773Z,7.32
2023-05-15T16:13:43.728Z,7.50
2023-05-15T16:16:10.654Z,6.88
2023-05-15T16:18:37.565Z,7.60
2023-05-15T16:21:04.397Z,7.63
2023-05-15T16:23:37.961Z,7.93
2023-05-15T16:26:05.110Z,7.75
2023-05-15T16:28:32.438Z,7.50
2023-05-15T16:30:59.887Z,7.88
2023-05-15T16:33:26.871Z,7.93
2023-05-15T16:35:53.699Z,7.82
2023-05-15T16:38:20.998Z,7.68
2023-05-15T16:40:47.734Z,7.65
2023-05-15T16:43:15.790Z,7.35
2023-05-15T16:45:42.937Z,7.18
2023-05-15T16:48:09.606Z,7.65
2023-05-15T16:50:37.235Z,8.38
2023-05-15T16:53:04.905Z,8.40
2023-05-15T16:55:32.521Z,7.40
2023-05-15T16:57:59.435Z,7.45
2023-05-15T17:00:26.517Z,7.35
2023-05-15T17:02:53.791Z,6.40
2023-05-15T17:05:20.744Z,7.40
2023-05-15T17:07:47.481Z,7.90
2023-05-15T17:10:25.509Z,7.68
2023-05-15T17:15:28.038Z,8.65
2023-05-15T17:17:54.928Z,7.53
2023-05-15T17:20:21.619Z,6.95
2023-05-15T17:22:48.377Z,7.43
2023-05-15T17:25:15.041Z,7.63
2023-05-15T17:27:41.971Z,7.32
2023-05-15T17:30:10.441Z,6.03
2023-05-15T17:32:38.935Z,6.53
2023-05-15T17:35:06.450Z,6.25
2023-05-15T17:37:33.836Z,7.15
2023-05-15T17:40:00.873Z,6.45
2023-05-15T17:42:28.483Z,7.43
2023-05-15T17:44:56.476Z,7.90
2023-05-15T17:47:23.599Z,7.13
2023-05-15T17:49:50.355Z,6.70
2023-05-15T17:52:17.166Z,7.32
2023-05-15T17:54:43.835Z,7.60
2023-05-15T17:57:11.029Z,6.93
2023-05-15T17:59:37.804Z,6.82
2023-05-15T18:02:04.806Z,6.78
2023-05-15T18:04:31.493Z,7.07
2023-05-15T18:06:58.277Z,6.32
2023-05-15T18:09:25.450Z,7.00
2023-05-15T18:11:52.177Z,6.40
2023-05-15T18:14:18.958Z,6.85
2023-05-15T18:16:45.834Z,6.68
2023-05-15T18:19:12.761Z,7.38
2023-05-15T18:21:39.468Z,7.10
2023-05-15T18:24:06.745Z,7.03
2023-05-15T18:26:33.530Z,7.18
2023-05-15T18:29:00.161Z,7.20
2023-05-15T18:31:26.936Z,7.03
2023-05-15T18:33:53.735Z,7.38
2023-05-15T18:36:20.385Z,8.15
2023-05-15T18:38:47.008Z,7.28
2023-05-15T18:41:13.618Z,7.57
2023-05-15T18:43:40.597Z,8.20
2023-05-15T18:46:07.283Z,9.38
2023-05-15T18:48:33.873Z,8.32
2023-05-15T18:51:00.665Z,8.07
2023-05-15T18:53:28.446Z,8.43
2023-05-15T18:55:55.063Z,8.60
2023-05-15T18:58:22.051Z,8.48
2023-05-15T19:00:50.867Z,7.85
2023-05-15T19:03:18.879Z,8.68
2023-05-15T19:05:45.708Z,7.93
2023-05-15T19:08:12.310Z,7.22
2023-05-15T19:10:38.858Z,8.02
2023-05-15T19:13:05.808Z,8.70
2023-05-15T19:15:32.744Z,8.00
2023-05-15T19:17:59.497Z,8.43
2023-05-15T19:20:26.906Z,8.10
2023-05-15T19:22:55.749Z,6.95
2023-05-15T19:25:22.748Z,7.70
2023-05-15T19:27:49.939Z,7.00
2023-05-15T19:30:16.543Z,7.60
2023-05-15T19:32:43.270Z,8.02
2023-05-15T19:35:10.262Z,7.55
2023-05-15T19:37:37.417Z,9.27
2023-05-15T19:40:07.082Z,8.90
2023-05-15T19:42:33.787Z,9.38
2023-05-15T19:45:00.678Z,8.75
2023-05-15T19:47:27.484Z,9.02
2023-05-15T19:49:54.407Z,7.85
2023-05-15T19:52:21.155Z,8.43
2023-05-15T19:54:47.792Z,8.73
2023-05-15T19:57:14.420Z,7.68
2023-05-15T19:59:41.215Z,7.43
2023-05-15T20:02:11.229Z,8.07
2023-05-15T20:04:37.994Z,7.43
2023-05-15T20:07:05.203Z,7.30
2023-05-15T20:09:33.804Z,6.45
2023-05-15T20:12:00.883Z,6.63
2023-05-15T20:14:28.002Z,6.30
2023-05-15T20:16:54.782Z,6.13
2023-05-15T20:19:22.400Z,5.80
2023-05-15T20:21:50.646Z,6.28
2023-05-15T20:24:18.109Z,6.50
2023-05-15T20:26:45.198Z,6.00
2023-05-15T20:29:13.257Z,6.40
2023-05-15T20:31:40.570Z,6.40
2023-05-15T20:34:08.212Z,6.05
2023-05-15T20:36:34.970Z,6.40
2023-05-15T20:39:05.681Z,5.93
2023-05-15T20:41:33.552Z,5.72
2023-05-15T20:44:00.451Z,6.00
2023-05-15T20:46:29.937Z,6.07
2023-05-15T20:48:56.841Z,5.93
2023-05-15T20:51:24.103Z,5.63
2023-05-15T20:53:52.089Z,5.53
2023-05-15T20:56:18.963Z,5.38
2023-05-15T20:58:45.707Z,5.85
2023-05-15T21:01:12.447Z,5.80
2023-05-15T21:03:39.245Z,4.95
2023-05-15T21:06:06.069Z,4.70
2023-05-15T21:08:53.071Z,5.90
2023-05-15T21:11:19.806Z,5.15
2023-05-15T21:13:46.500Z,5.05
2023-05-15T21:16:13.153Z,4.70
2023-05-15T21:18:40.070Z,4.50
2023-05-15T21:21:07.309Z,3.90
2023-05-15T21:23:36.607Z,3.50
2023-05-15T21:26:03.955Z,3.60
2023-05-15T21:28:30.879Z,3.38
2023-05-15T21:30:57.838Z,3.20
2023-05-15T21:33:24.501Z,2.92
2023-05-15T21:35:51.678Z,3.03
2023-05-15T21:38:18.521Z,2.60
2023-05-15T21:40:45.304Z,2.65
2023-05-15T21:43:12.045Z,2.45
2023-05-15T21:45:38.828Z,2.80
2023-05-15T21:48:05.656Z,2.30
2023-05-15T21:50:32.784Z,2.03
2023-05-15T21:52:59.511Z,1.75
2023-05-15T21:55:26.328Z,2.03
2023-05-15T21:57:52.866Z,1.75
2023-05-15T22:00:19.758Z,1.85
2023-05-15T22:02:46.565Z,1.48
2023-05-15T22:05:13.542Z,1.30
2023-05-15T22:07:40.499Z,1.42
2023-05-15T22:10:07.738Z,1.60
2023-05-15T22:12:34.777Z,0.73
2023-05-15T22:15:01.384Z,0.80
2023-05-15T22:17:29.396Z,1.17
2023-05-15T22:20:08.126Z,0.88
2023-05-15T22:22:35.756Z,0.80
2023-05-15T22:25:02.755Z,0.80
2023-05-15T22:27:29.427Z,0.93
2023-05-15T22:29:56.425Z,1.08
2023-05-15T22:32:23.462Z,0.68
2023-05-15T22:34:50.329Z,0.65
2023-05-15T22:37:16.965Z,0.82
2023-05-15T22:39:43.939Z,1.17
2023-05-15T22:42:10.666Z,0.90
2023-05-15T22:44:37.565Z,0.90
2023-05-15T22:47:04.380Z,0.75
2023-05-15T22:49:31.183Z,1.15
2023-05-15T22:51:58.448Z,0.60
2023-05-15T22:54:25.262Z,0.95
2023-05-15T22:56:52.663Z,0.70
2023-05-15T22:59:19.980Z,0.70
2023-05-15T23:01:47.485Z,0.73
2023-05-15T23:04:15.187Z,1.05
2023-05-15T23:06:41.963Z,1.00
2023-05-15T23:09:09.822Z,0.80
2023-05-15T23:11:37.855Z,0.90
2023-05-15T23:14:04.605Z,1.17
2023-05-15T23:16:31.808Z,1.02
2023-05-15T23:18:59.839Z,1.15
2023-05-15T23:21:27.008Z,1.55
2023-05-15T23:23:54.026Z,1.40
2023-05-15T23:26:22.106Z,1.25
2023-05-15T23:28:48.833Z,1.65
2023-05-15T23:31:15.717Z,1.42
2023-05-15T23:33:42.985Z,1.48
2023-05-15T23:36:09.905Z,1.90
2023-05-15T23:38:37.611Z,1.35
2023-05-15T23:41:04.390Z,1.52
2023-05-15T23:43:32.224Z,1.60
2023-05-15T23:45:58.940Z,1.85
2023-05-15T23:48:26.350Z,1.50
2023-05-15T23:50:53.088Z,1.52
2023-05-15T23:53:20.918Z,1.75
2023-05-15T23:55:47.859Z,1.92
2023-05-15T23:58:14.610Z,1.90
